createdAt,value
2018-10-06T00:01:03.998Z,10.30
2018-10-06T00:03:31.285Z,9.77
2018-10-06T00:05:58.614Z,10.77
2018-10-06T00:08:25.917Z,8.67
2018-10-06T00:10:53.240Z,9.50
2018-10-06T00:13:20.594Z,9.50
2018-10-06T00:15:47.914Z,8.63
2018-10-06T00:18:15.199Z,9.90
2018-10-06T00:20:42.517Z,9.73
2018-10-06T00:23:09.833Z,9.77
2018-10-06T00:25:37.133Z,9.70
2018-10-06T00:28:04.701Z,10.00
2018-10-06T00:30:31.982Z,11.23
2018-10-06T00:32:59.278Z,10.40
2018-10-06T00:35:26.562Z,10.27
2018-10-06T00:37:53.858Z,10.47
2018-10-06T00:40:21.137Z,11.20
2018-10-06T00:42:48.418Z,9.33
2018-10-06T00:45:15.713Z,10.20
2018-10-06T00:47:43.053Z,10.10
2018-10-06T00:50:10.329Z,11.13
2018-10-06T00:52:37.616Z,10.40
2018-10-06T00:55:04.926Z,10.63
2018-10-06T00:57:32.232Z,10.10
2018-10-06T00:59:59.510Z,10.60
2018-10-06T01:02:26.817Z,10.50
2018-10-06T01:04:54.132Z,10.20
2018-10-06T01:07:21.422Z,10.77
2018-10-06T01:09:48.725Z,11.70
2018-10-06T01:12:16.004Z,12.53
2018-10-06T01:14:43.276Z,11.20
2018-10-06T01:17:10.587Z,12.67
2018-10-06T01:19:37.866Z,10.37
2018-10-06T01:22:05.513Z,10.10
2018-10-06T01:24:32.916Z,10.40
2018-10-06T01:27:00.240Z,8.30
2018-10-06T01:29:30.806Z,9.87
2018-10-06T01:31:59.082Z,10.40
2018-10-06T01:34:26.394Z,9.43
2018-10-06T01:36:53.750Z,9.03
2018-10-06T01:39:21.047Z,8.57
2018-10-06T01:41:48.322Z,10.43
2018-10-06T01:44:15.615Z,9.90
2018-10-06T01:46:42.901Z,9.50
2018-10-06T01:49:10.177Z,9.40
2018-10-06T01:51:37.453Z,10.20
2018-10-06T01:54:04.736Z,9.37
2018-10-06T01:56:32.018Z,9.10
2018-10-06T01:58:59.297Z,9.10
2018-10-06T02:01:26.553Z,9.17
2018-10-06T02:03:53.873Z,9.20
2018-10-06T02:06:21.121Z,9.83
2018-10-06T02:08:48.382Z,9.03
2018-10-06T02:11:15.630Z,9.40
2018-10-06T02:13:42.928Z,8.27
2018-10-06T02:16:10.206Z,9.00
2018-10-06T02:18:37.481Z,10.30
2018-10-06T02:21:05.028Z,9.57
2018-10-06T02:23:32.273Z,10.43
2018-10-06T02:25:59.550Z,9.27
2018-10-06T02:28:26.797Z,9.67
2018-10-06T02:30:54.082Z,10.90
2018-10-06T02:33:21.349Z,10.07
2018-10-06T02:35:48.612Z,11.03
2018-10-06T02:38:15.848Z,9.87
2018-10-06T02:40:43.085Z,9.97
2018-10-06T02:43:10.329Z,12.00
2018-10-06T02:45:37.590Z,11.87
2018-10-06T02:48:04.860Z,11.83
2018-10-06T02:50:32.105Z,13.03
2018-10-06T02:52:59.328Z,12.70
2018-10-06T02:55:26.591Z,11.73
2018-10-06T02:57:53.837Z,11.40
2018-10-06T03:00:21.122Z,13.10
2018-10-06T03:02:48.365Z,15.00
2018-10-06T03:05:15.625Z,14.43
2018-10-06T03:07:42.877Z,17.00
2018-10-06T03:10:10.130Z,17.93
2018-10-06T03:12:37.377Z,16.53
2018-10-06T03:15:04.835Z,16.20
2018-10-06T03:17:32.073Z,17.20
2018-10-06T03:19:59.356Z,17.10
2018-10-06T03:22:26.597Z,15.60
2018-10-06T03:24:53.857Z,16.60
2018-10-06T03:27:21.146Z,16.50
2018-10-06T03:29:48.402Z,18.17
2018-10-06T03:32:15.665Z,21.47
2018-10-06T03:34:42.922Z,21.87
2018-10-06T03:37:10.177Z,18.53
2018-10-06T03:39:37.425Z,19.00
2018-10-06T03:42:04.698Z,19.43
2018-10-06T03:44:31.943Z,18.50
2018-10-06T03:46:59.197Z,19.83
2018-10-06T03:49:26.435Z,18.10
2018-10-06T03:51:53.673Z,17.60
2018-10-06T03:54:22.216Z,16.40
2018-10-06T03:56:49.493Z,14.70
2018-10-06T03:59:16.796Z,15.07
2018-10-06T04:01:44.048Z,14.97
2018-10-06T04:04:11.285Z,14.67
2018-10-06T04:06:38.553Z,18.27
2018-10-06T04:09:07.305Z,17.10
2018-10-06T04:11:34.844Z,16.30
2018-10-06T04:14:02.081Z,14.50
2018-10-06T04:16:29.349Z,16.10
2018-10-06T04:18:56.601Z,15.37
2018-10-06T04:21:23.858Z,15.33
2018-10-06T04:23:51.098Z,15.60
2018-10-06T04:26:18.368Z,15.93
2018-10-06T04:28:45.641Z,15.50
2018-10-06T04:31:13.005Z,15.83
2018-10-06T04:33:40.256Z,13.67
2018-10-06T04:36:07.521Z,13.67
2018-10-06T04:38:34.787Z,13.97
2018-10-06T04:41:02.026Z,13.57
2018-10-06T04:43:29.273Z,13.93
2018-10-06T04:45:56.533Z,14.50
2018-10-06T04:48:23.802Z,16.40
2018-10-06T04:50:51.057Z,14.47
2018-10-06T04:53:18.382Z,13.97
2018-10-06T04:55:45.573Z,16.80
2018-10-06T04:58:12.826Z,14.60
2018-10-06T05:00:40.144Z,15.07
2018-10-06T05:03:07.453Z,13.90
2018-10-06T05:05:34.674Z,14.00
2018-10-06T05:08:01.974Z,13.73
2018-10-06T05:10:29.237Z,14.13
2018-10-06T05:12:56.509Z,14.17
2018-10-06T05:15:23.781Z,14.70
2018-10-06T05:17:51.064Z,13.87
2018-10-06T05:20:18.354Z,15.30
2018-10-06T05:22:45.655Z,15.37
2018-10-06T05:25:12.926Z,14.63
2018-10-06T05:27:40.213Z,14.23
2018-10-06T05:30:07.530Z,16.00
2018-10-06T05:32:34.831Z,15.10
2018-10-06T05:35:02.150Z,13.60
2018-10-06T05:37:29.447Z,12.37
2018-10-06T05:39:56.794Z,11.90
2018-10-06T05:42:24.086Z,12.97
2018-10-06T05:44:51.386Z,13.53
2018-10-06T05:47:18.702Z,13.47
2018-10-06T05:49:45.999Z,13.03
2018-10-06T05:52:13.294Z,13.77
2018-10-06T05:54:40.603Z,14.00
2018-10-06T05:57:08.077Z,12.97
2018-10-06T05:59:35.379Z,13.10
2018-10-06T06:02:02.765Z,12.95
2018-10-06T06:04:30.143Z,13.50
2018-10-06T06:06:57.466Z,14.18
2018-10-06T06:09:24.763Z,15.53
2018-10-06T06:11:52.066Z,17.40
2018-10-06T06:14:19.386Z,18.32
2018-10-06T06:16:46.690Z,18.12
2018-10-06T06:19:14.019Z,16.55
2018-10-06T06:21:41.381Z,16.33
2018-10-06T06:24:08.675Z,15.88
2018-10-06T06:26:35.980Z,14.70
2018-10-06T06:29:03.313Z,13.57
2018-10-06T06:31:30.728Z,16.10
2018-10-06T06:33:57.967Z,14.00
2018-10-06T06:36:25.368Z,13.87
2018-10-06T06:38:52.721Z,14.60
2018-10-06T06:41:20.026Z,15.20
2018-10-06T06:43:47.431Z,14.00
2018-10-06T06:46:14.682Z,15.10
2018-10-06T06:48:42.105Z,17.10
2018-10-06T06:51:09.398Z,15.60
2018-10-06T06:53:36.679Z,15.57
2018-10-06T06:56:04.016Z,14.13
2018-10-06T06:58:31.310Z,16.83
2018-10-06T07:00:58.614Z,17.47
2018-10-06T07:03:25.916Z,16.07
2018-10-06T07:05:53.353Z,15.37
2018-10-06T07:08:20.560Z,15.37
2018-10-06T07:10:47.876Z,15.10
2018-10-06T07:13:15.178Z,16.50
2018-10-06T07:15:42.467Z,15.60
2018-10-06T07:18:09.765Z,16.30
2018-10-06T07:20:37.168Z,15.30
2018-10-06T07:23:04.512Z,14.33
2018-10-06T07:25:31.849Z,15.47
2018-10-06T07:27:59.141Z,15.90
2018-10-06T07:30:26.468Z,17.37
2018-10-06T07:32:54.573Z,16.20
2018-10-06T07:35:21.886Z,16.80
2018-10-06T07:37:49.173Z,16.80
2018-10-06T07:40:16.497Z,18.00
2018-10-06T07:42:43.793Z,17.63
2018-10-06T07:45:11.094Z,18.80
2018-10-06T07:47:38.403Z,18.33
2018-10-06T07:50:05.708Z,16.70
2018-10-06T07:52:33.020Z,17.07
2018-10-06T07:55:00.321Z,17.43
2018-10-06T07:57:27.620Z,15.50
2018-10-06T07:59:54.922Z,16.10
2018-10-06T08:02:22.236Z,15.40
2018-10-06T08:04:49.512Z,14.27
2018-10-06T08:07:16.814Z,14.10
2018-10-06T08:09:44.109Z,14.73
2018-10-06T08:12:11.426Z,14.00
2018-10-06T08:14:38.774Z,13.07
2018-10-06T08:17:06.059Z,13.43
2018-10-06T08:19:33.334Z,13.30
2018-10-06T08:22:00.652Z,14.67
2018-10-06T08:24:27.968Z,13.23
2018-10-06T08:26:55.259Z,14.43
2018-10-06T08:29:22.561Z,13.47
2018-10-06T08:31:49.928Z,15.07
2018-10-06T08:34:17.308Z,14.37
2018-10-06T08:36:44.592Z,14.17
2018-10-06T08:39:11.882Z,14.00
2018-10-06T08:41:39.199Z,14.20
2018-10-06T08:44:06.473Z,13.30
2018-10-06T08:46:33.771Z,14.30
2018-10-06T08:49:01.070Z,14.13
2018-10-06T08:51:28.357Z,14.10
2018-10-06T08:53:55.649Z,14.80
2018-10-06T08:56:23.234Z,15.20
2018-10-06T08:58:50.529Z,15.70
2018-10-06T09:01:17.828Z,17.03
2018-10-06T09:03:45.137Z,14.77
2018-10-06T09:06:12.446Z,16.47
2018-10-06T09:08:39.737Z,15.43
2018-10-06T09:11:07.021Z,16.37
2018-10-06T09:13:34.340Z,16.43
2018-10-06T09:16:01.632Z,14.47
2018-10-06T09:18:28.924Z,13.90
2018-10-06T09:20:56.340Z,14.70
2018-10-06T09:23:23.646Z,13.53
2018-10-06T09:25:50.941Z,14.57
2018-10-06T09:28:18.334Z,13.83
2018-10-06T09:30:45.584Z,14.60
2018-10-06T09:33:12.878Z,14.00
2018-10-06T09:35:40.185Z,14.37
2018-10-06T09:38:07.501Z,14.20
2018-10-06T09:40:34.794Z,15.60
2018-10-06T09:43:02.092Z,13.57
2018-10-06T09:45:29.439Z,14.50
2018-10-06T09:47:56.782Z,15.37
2018-10-06T09:50:24.047Z,14.70
2018-10-06T09:52:51.320Z,14.63
2018-10-06T09:55:18.605Z,13.60
2018-10-06T09:57:45.987Z,13.80
2018-10-06T10:00:13.370Z,14.63
2018-10-06T10:02:46.294Z,13.27
2018-10-06T10:05:19.169Z,14.60
2018-10-06T10:07:46.441Z,12.80
2018-10-06T10:10:13.693Z,15.47
2018-10-06T10:12:41.099Z,13.13
2018-10-06T10:15:08.289Z,14.10
2018-10-06T10:17:35.619Z,12.60
2018-10-06T10:20:02.864Z,13.63
2018-10-06T10:22:30.225Z,12.93
2018-10-06T10:24:57.420Z,13.00
2018-10-06T10:27:24.733Z,13.13
2018-10-06T10:29:52.007Z,12.07
2018-10-06T10:32:19.262Z,13.20
2018-10-06T10:34:46.567Z,13.40
2018-10-06T10:37:13.852Z,12.40
2018-10-06T10:39:41.146Z,12.73
2018-10-06T10:42:08.385Z,12.20
2018-10-06T10:44:35.666Z,12.77
2018-10-06T10:47:02.949Z,13.43
2018-10-06T10:49:30.350Z,11.60
2018-10-06T10:51:57.673Z,12.40
2018-10-06T10:54:24.943Z,12.67
2018-10-06T10:56:52.233Z,11.47
2018-10-06T10:59:19.535Z,11.07
2018-10-06T11:01:46.768Z,10.47
2018-10-06T11:04:14.021Z,9.87
2018-10-06T11:06:41.425Z,8.77
2018-10-06T11:09:08.743Z,7.50
2018-10-06T11:11:36.173Z,8.30
2018-10-06T11:14:03.468Z,6.40
2018-10-06T11:16:30.817Z,5.37
2018-10-06T11:18:58.109Z,6.13
2018-10-06T11:21:26.078Z,5.20
2018-10-06T11:23:53.356Z,5.37
2018-10-06T11:26:20.678Z,5.90
2018-10-06T11:28:47.969Z,5.70
2018-10-06T11:31:15.295Z,5.27
2018-10-06T11:33:42.618Z,4.87
2018-10-06T11:36:09.905Z,5.43
2018-10-06T11:38:37.194Z,5.27
2018-10-06T11:41:04.505Z,6.23
2018-10-06T11:43:31.857Z,4.70
2018-10-06T11:45:59.149Z,5.67
2018-10-06T11:48:26.444Z,5.80
2018-10-06T11:50:53.720Z,5.07
2018-10-06T11:53:21.026Z,5.20
2018-10-06T11:55:48.317Z,4.77
2018-10-06T11:58:15.629Z,5.10
2018-10-06T12:00:43.043Z,4.77
2018-10-06T12:03:10.337Z,5.00
2018-10-06T12:05:37.741Z,4.60
2018-10-06T12:08:05.076Z,5.27
2018-10-06T12:10:32.348Z,4.80
2018-10-06T12:12:59.644Z,5.13
2018-10-06T12:15:26.918Z,5.10
2018-10-06T12:17:54.196Z,5.47
2018-10-06T12:20:21.480Z,4.93
2018-10-06T12:22:48.774Z,4.73
2018-10-06T12:25:16.084Z,3.70
2018-10-06T12:27:43.358Z,5.00
2018-10-06T12:30:10.681Z,4.93
2018-10-06T12:32:37.932Z,4.10
2018-10-06T12:35:05.238Z,4.03
2018-10-06T12:37:32.471Z,4.40
2018-10-06T12:39:59.742Z,4.57
2018-10-06T12:42:26.984Z,4.30
2018-10-06T12:44:54.253Z,3.80
2018-10-06T12:47:21.516Z,4.00
2018-10-06T12:49:48.776Z,3.93
2018-10-06T12:52:16.044Z,4.57
2018-10-06T12:54:43.408Z,3.80
2018-10-06T12:57:10.657Z,4.30
2018-10-06T12:59:37.957Z,3.80
2018-10-06T13:02:05.337Z,3.70
2018-10-06T13:04:32.636Z,3.73
2018-10-06T13:07:00.112Z,3.70
2018-10-06T13:09:27.389Z,4.30
2018-10-06T13:11:54.688Z,4.10
2018-10-06T13:14:21.969Z,3.60
2018-10-06T13:16:49.249Z,3.97
2018-10-06T13:19:16.541Z,3.93
2018-10-06T13:21:43.826Z,3.50
2018-10-06T13:24:11.148Z,3.67
2018-10-06T13:26:38.449Z,3.50
2018-10-06T13:29:05.716Z,3.53
2018-10-06T13:31:33.048Z,4.03
2018-10-06T13:34:00.323Z,7.60
2018-10-06T13:36:27.617Z,27.17
2018-10-06T13:38:54.933Z,26.90
2018-10-06T13:41:22.233Z,15.60
2018-10-06T13:43:49.537Z,7.20
2018-10-06T13:46:16.848Z,4.20
2018-10-06T13:48:44.260Z,3.90
2018-10-06T13:51:11.525Z,3.30
2018-10-06T13:53:38.823Z,3.00
2018-10-06T13:56:06.136Z,3.10
2018-10-06T13:58:33.548Z,2.80
2018-10-06T14:01:00.786Z,3.20
2018-10-06T14:03:28.097Z,4.10
2018-10-06T14:05:55.393Z,4.20
2018-10-06T14:08:22.651Z,3.40
2018-10-06T14:10:50.030Z,3.80
2018-10-06T14:13:17.266Z,4.47
2018-10-06T14:15:44.560Z,3.40
2018-10-06T14:18:11.855Z,4.00
2018-10-06T14:20:39.284Z,4.23
2018-10-06T14:23:06.563Z,4.57
2018-10-06T14:25:33.824Z,3.60
2018-10-06T14:28:01.089Z,3.40
2018-10-06T14:30:28.337Z,4.40
2018-10-06T14:32:55.600Z,3.90
2018-10-06T14:35:22.845Z,3.40
2018-10-06T14:37:50.101Z,3.50
2018-10-06T14:40:17.348Z,3.83
2018-10-06T14:42:44.622Z,4.30
2018-10-06T14:45:11.861Z,3.70
2018-10-06T14:47:39.186Z,3.97
2018-10-06T14:50:06.572Z,4.20
2018-10-06T14:52:33.833Z,4.07
2018-10-06T14:55:01.073Z,3.30
2018-10-06T14:57:28.338Z,3.57
2018-10-06T14:59:55.581Z,4.30
2018-10-06T15:02:22.812Z,2.60
2018-10-06T15:04:50.069Z,3.37
2018-10-06T15:07:17.370Z,3.40
2018-10-06T15:09:44.660Z,3.43
2018-10-06T15:12:11.973Z,3.23
2018-10-06T15:14:39.252Z,3.23
2018-10-06T15:17:06.537Z,3.10
2018-10-06T15:19:33.847Z,3.27
2018-10-06T15:22:01.127Z,3.27
2018-10-06T15:24:28.420Z,3.80
2018-10-06T15:26:55.717Z,4.00
2018-10-06T15:29:23.004Z,3.13
2018-10-06T15:31:50.310Z,3.33
2018-10-06T15:34:17.754Z,2.83
2018-10-06T15:36:45.143Z,3.40
2018-10-06T15:39:12.470Z,2.90
2018-10-06T15:41:39.717Z,3.40
2018-10-06T15:44:07.022Z,3.33
2018-10-06T15:46:34.357Z,3.03
2018-10-06T15:49:01.616Z,3.50
2018-10-06T15:51:28.896Z,3.30
2018-10-06T15:53:56.145Z,3.10
2018-10-06T15:56:23.436Z,3.00
2018-10-06T15:58:50.672Z,3.13
2018-10-06T16:01:17.937Z,3.33
2018-10-06T16:03:45.207Z,3.33
2018-10-06T16:06:12.479Z,3.20
2018-10-06T16:08:39.785Z,3.60
2018-10-06T16:11:07.037Z,3.30
2018-10-06T16:13:34.313Z,3.30
2018-10-06T16:16:01.647Z,3.70
2018-10-06T16:18:28.897Z,3.40
2018-10-06T16:20:56.178Z,3.63
2018-10-06T16:23:23.445Z,3.80
2018-10-06T16:25:50.710Z,3.20
2018-10-06T16:28:17.953Z,3.03
2018-10-06T16:30:45.440Z,3.57
2018-10-06T16:33:12.696Z,3.30
2018-10-06T16:35:40.056Z,3.43
2018-10-06T16:38:07.401Z,3.23
2018-10-06T16:40:34.673Z,3.40
2018-10-06T16:43:01.938Z,3.50
2018-10-06T16:45:29.534Z,3.67
2018-10-06T16:47:56.789Z,3.97
2018-10-06T16:50:24.034Z,4.80
2018-10-06T16:52:51.334Z,4.53
2018-10-06T16:55:18.669Z,11.80
2018-10-06T16:57:45.953Z,15.60
2018-10-06T17:00:13.225Z,13.93
2018-10-06T17:02:40.484Z,21.80
2018-10-06T17:05:07.884Z,13.20
2018-10-06T17:07:35.235Z,14.53
2018-10-06T17:10:02.523Z,12.90
2018-10-06T17:12:29.837Z,11.83
2018-10-06T17:14:57.517Z,7.53
2018-10-06T17:17:24.813Z,7.43
2018-10-06T17:19:52.418Z,9.13
2018-10-06T17:22:19.709Z,8.83
2018-10-06T17:24:46.977Z,7.67
2018-10-06T17:27:14.319Z,7.83
2018-10-06T17:29:41.614Z,9.20
2018-10-06T17:32:09.073Z,7.60
2018-10-06T17:34:36.389Z,7.70
2018-10-06T17:37:03.765Z,6.10
2018-10-06T17:39:31.048Z,5.40
2018-10-06T17:41:58.340Z,5.10
2018-10-06T17:44:25.820Z,4.73
2018-10-06T17:46:53.108Z,5.10
2018-10-06T17:49:20.414Z,4.70
2018-10-06T17:51:47.969Z,4.27
2018-10-06T17:54:15.282Z,4.33
2018-10-06T17:56:42.567Z,5.00
2018-10-06T17:59:09.882Z,7.20
2018-10-06T18:01:37.220Z,13.90
2018-10-06T18:04:04.527Z,12.40
2018-10-06T18:06:31.833Z,10.70
2018-10-06T18:08:59.125Z,10.70
2018-10-06T18:11:26.404Z,11.03
2018-10-06T18:13:53.690Z,15.30
2018-10-06T18:16:20.996Z,14.53
2018-10-06T18:18:48.269Z,20.90
2018-10-06T18:21:15.665Z,17.80
2018-10-06T18:23:42.842Z,19.03
2018-10-06T18:26:10.127Z,20.90
2018-10-06T18:28:37.417Z,19.40
2018-10-06T18:31:04.717Z,12.57
2018-10-06T18:33:32.205Z,12.47
2018-10-06T18:35:59.704Z,11.63
2018-10-06T18:38:27.005Z,8.60
2018-10-06T18:40:54.305Z,6.47
2018-10-06T18:43:21.697Z,5.10
2018-10-06T18:45:48.918Z,6.00
2018-10-06T18:48:16.288Z,6.90
2018-10-06T18:50:43.588Z,10.23
2018-10-06T18:53:10.873Z,8.97
2018-10-06T18:55:38.266Z,7.57
2018-10-06T18:58:05.584Z,9.07
2018-10-06T19:00:32.886Z,8.00
2018-10-06T19:03:00.199Z,7.00
2018-10-06T19:05:27.533Z,6.63
2018-10-06T19:07:54.838Z,6.23
2018-10-06T19:10:22.234Z,6.30
2018-10-06T19:12:49.552Z,11.87
2018-10-06T19:15:16.834Z,22.40
2018-10-06T19:17:44.250Z,19.77
2018-10-06T19:20:11.585Z,17.13
2018-10-06T19:22:39.217Z,13.30
2018-10-06T19:25:06.533Z,14.83
2018-10-06T19:27:33.831Z,11.20
2018-10-06T19:30:01.143Z,12.00
2018-10-06T19:32:28.473Z,9.47
2018-10-06T19:34:55.772Z,7.80
2018-10-06T19:37:23.064Z,6.77
2018-10-06T19:39:50.691Z,7.10
2018-10-06T19:42:17.932Z,8.90
2018-10-06T19:44:45.468Z,17.03
2018-10-06T19:47:13.144Z,29.90
2018-10-06T19:49:40.465Z,27.40
2018-10-06T19:52:07.829Z,27.60
2018-10-06T19:54:35.113Z,33.43
2018-10-06T19:57:02.522Z,35.00
2018-10-06T19:59:29.821Z,29.37
2018-10-06T20:01:59.146Z,19.50
2018-10-06T20:04:26.446Z,17.50
2018-10-06T20:06:53.798Z,16.17
2018-10-06T20:09:21.150Z,19.13
2018-10-06T20:11:48.448Z,17.37
2018-10-06T20:14:15.759Z,16.63
2018-10-06T20:16:43.072Z,16.57
2018-10-06T20:19:10.487Z,20.30
2018-10-06T20:21:37.749Z,18.70
2018-10-06T20:24:05.143Z,17.77
2018-10-06T20:26:32.509Z,16.47
2018-10-06T20:28:59.861Z,13.33
2018-10-06T20:31:27.178Z,10.73
2018-10-06T20:33:54.497Z,9.80
2018-10-06T20:36:21.825Z,9.47
2018-10-06T20:38:49.143Z,7.83
2018-10-06T20:41:16.464Z,8.07
2018-10-06T20:43:43.806Z,8.47
2018-10-06T20:46:11.171Z,9.97
2018-10-06T20:48:38.532Z,9.67
2018-10-06T20:51:05.849Z,11.80
2018-10-06T20:53:33.153Z,9.70
2018-10-06T20:56:00.475Z,9.57
2018-10-06T20:58:27.851Z,8.33
2018-10-06T21:00:55.162Z,8.90
2018-10-06T21:03:22.510Z,9.07
2018-10-06T21:05:49.865Z,10.20
2018-10-06T21:08:17.193Z,10.53
2018-10-06T21:10:44.505Z,11.63
2018-10-06T21:13:11.843Z,13.53
2018-10-06T21:15:39.165Z,11.00
2018-10-06T21:18:06.505Z,11.60
2018-10-06T21:20:34.022Z,13.13
2018-10-06T21:23:01.341Z,14.43
2018-10-06T21:25:28.636Z,13.83
2018-10-06T21:27:55.949Z,11.53
2018-10-06T21:30:23.250Z,16.73
2018-10-06T21:32:50.573Z,13.63
2018-10-06T21:35:17.902Z,11.30
2018-10-06T21:37:45.223Z,9.87
2018-10-06T21:40:12.529Z,14.03
2018-10-06T21:42:39.846Z,8.63
2018-10-06T21:45:07.203Z,11.20
2018-10-06T21:47:34.510Z,11.77
2018-10-06T21:50:01.897Z,14.27
2018-10-06T21:52:29.182Z,17.47
2018-10-06T21:54:56.505Z,15.20
2018-10-06T21:57:23.801Z,14.10
2018-10-06T21:59:51.161Z,13.67
2018-10-06T22:02:18.503Z,12.33
2018-10-06T22:04:45.840Z,12.67
2018-10-06T22:07:13.149Z,13.70
2018-10-06T22:09:40.453Z,14.60
2018-10-06T22:12:07.782Z,12.50
2018-10-06T22:14:35.078Z,11.27
2018-10-06T22:17:02.369Z,9.73
2018-10-06T22:19:29.658Z,9.00
2018-10-06T22:21:56.950Z,10.67
2018-10-06T22:24:24.221Z,10.97
2018-10-06T22:26:51.538Z,13.27
2018-10-06T22:29:18.820Z,12.30
2018-10-06T22:31:46.126Z,14.83
2018-10-06T22:34:13.424Z,15.53
2018-10-06T22:36:40.705Z,13.97
2018-10-06T22:39:08.811Z,13.20
2018-10-06T22:41:36.145Z,11.53
2018-10-06T22:44:03.441Z,12.30
2018-10-06T22:46:30.713Z,9.30
2018-10-06T22:48:58.006Z,7.80
2018-10-06T22:51:25.329Z,7.87
2018-10-06T22:53:52.599Z,7.40
2018-10-06T22:56:19.891Z,9.07
2018-10-06T22:58:47.163Z,7.03
2018-10-06T23:01:14.445Z,7.70
2018-10-06T23:03:41.712Z,7.87
2018-10-06T23:06:09.059Z,8.03
2018-10-06T23:08:36.349Z,8.10
2018-10-06T23:11:03.621Z,8.67
2018-10-06T23:13:30.973Z,7.30
2018-10-06T23:15:58.286Z,8.07
2018-10-06T23:18:25.557Z,8.00
2018-10-06T23:20:52.833Z,7.77
2018-10-06T23:23:20.118Z,8.03
2018-10-06T23:25:47.484Z,8.23
2018-10-06T23:28:14.758Z,7.60
2018-10-06T23:30:42.030Z,7.30
2018-10-06T23:33:09.328Z,8.50
2018-10-06T23:35:36.609Z,7.67
2018-10-06T23:38:03.965Z,7.47
2018-10-06T23:40:31.250Z,8.10
2018-10-06T23:42:58.521Z,8.07
2018-10-06T23:45:25.788Z,8.37
2018-10-06T23:47:53.063Z,8.13
2018-10-06T23:50:20.346Z,7.73
2018-10-06T23:52:47.645Z,8.20
2018-10-06T23:55:14.941Z,8.17
2018-10-06T23:57:42.225Z,8.10
